Time;durP1;ratioP1;P1;durP2;ratioP2;P2;SDS_P1;SDS_P2;PMS_P1;PMS_P2;Temp;Humidity;BMP_temperature;BMP_pressure;BME280_temperature;BME280_humidity;BME280_pressure;Samples;Min_cycle;Max_cycle;Signal;HPM_P1;HPM_P2
2023/12/03 00:01:28;;;;;;;;;;;;;;;;;;4163926;28;19921;-58
2023/12/03 00:03:39;;;;;;;;;;;;;;;;;;4163786;28;19953;-57
2023/12/03 00:05:41;;;;;;;;;;;;;;;;;;4164593;28;20432;-58
2023/12/03 00:07:42;;;;;;;;;;;;;;;;;;4164385;28;19937;-57
2023/12/03 00:09:45;;;;;;;;;;;;;;;;;;4146340;28;20324;-58
2023/12/03 00:11:47;;;;;;;;;;;;;;;;;;4164558;28;19921;-57
2023/12/03 00:13:48;;;;;;;;;;;;;;;;;;4164522;28;20400;-58
2023/12/03 00:15:50;;;;;;;;;;;;;;;;;;4164579;28;19921;-57
2023/12/03 00:17:51;;;;;;;;;;;;;;;;;;4164307;28;20296;-58
2023/12/03 00:19:53;;;;;;;;;;;;;;;;;;4164455;28;19975;-57
2023/12/03 00:21:54;;;;;;;;;;;;;;;;;;4164248;28;19924;-58
2023/12/03 00:23:56;;;;;;;;;;;;;;;;;;4162265;28;19944;-58
2023/12/03 00:25:57;;;;;;;;;;;;;;;;;;4146635;28;19926;-58
2023/12/03 00:27:59;;;;;;;;;;;;;;;;;;4147552;28;19921;-59
2023/12/03 00:30:00;;;;;;;;;;;;;;;;;;4146830;28;19928;-59
2023/12/03 00:32:02;;;;;;;;;;;;;;;;;;4147803;28;20293;-59
2023/12/03 00:34:03;;;;;;;;;;;;;;;;;;4147814;28;20024;-58
2023/12/03 00:36:05;;;;;;;;;;;;;;;;;;4147757;28;19929;-60
2023/12/03 00:38:06;;;;;;;;;;;;;;;;;;4146474;28;20005;-59
2023/12/03 00:40:08;;;;;;;;;;;;;;;;;;4150624;28;19933;-59
2023/12/03 00:42:09;;;;;;;;;;;;;;;;;;4147842;28;20501;-59
2023/12/03 00:44:11;;;;;;;;;;;;;;;;;;4147726;28;19929;-60
2023/12/03 00:46:12;;;;;;;;;;;;;;;;;;4147806;28;19991;-59
2023/12/03 00:48:13;;;;;;;;;;;;;;;;;;4149657;28;19925;-58
2023/12/03 00:50:16;;;;;;;;;;;;;;;;;;4150802;28;20066;-60
2023/12/03 00:52:18;;;;;;;;;;;;;;;;;;4150648;28;19921;-59
2023/12/03 00:54:19;;;;;;;;;;;;;;;;;;4162248;28;19967;-60
2023/12/03 00:56:21;;;;;;;;;;;;;;;;;;4167152;28;20411;-59
2023/12/03 00:58:22;;;;;;;;;;;;;;;;;;4167010;28;19932;-59
2023/12/03 01:00:24;;;;;;;;;;;;;;;;;;4166920;28;20373;-59
2023/12/03 01:02:25;;;;;;;;;;;;;;;;;;4166532;28;19929;-59
2023/12/03 01:04:27;;;;;;;;;;;;;;;;;;4166678;28;19921;-59
2023/12/03 01:06:28;;;;;;;;;;;;;;;;;;4165570;28;19920;-60
2023/12/03 01:08:30;;;;;;;;;;;;;;;;;;4166176;28;19921;-59
2023/12/03 01:10:31;;;;;;;;;;;;;;;;;;4166930;28;20432;-60
2023/12/03 01:12:33;;;;;;;;;;;;;;;;;;4167007;28;19940;-59
2023/12/03 01:14:34;;;;;;;;;;;;;;;;;;4166742;28;19925;-59
2023/12/03 01:16:36;;;;;;;;;;;;;;;;;;4166639;28;19935;-59
2023/12/03 01:18:37;;;;;;;;;;;;;;;;;;4150516;28;19933;-59
2023/12/03 01:20:39;;;;;;;;;;;;;;;;;;4150031;28;19975;-59
2023/12/03 01:22:40;;;;;;;;;;;;;;;;;;4150451;28;19925;-59
2023/12/03 01:24:42;;;;;;;;;;;;;;;;;;4150323;28;19991;-59
2023/12/03 01:26:43;;;;;;;;;;;;;;;;;;4154090;28;19951;-60
2023/12/03 01:28:45;;;;;;;;;;;;;;;;;;4166295;28;19932;-60
2023/12/03 01:30:46;;;;;;;;;;;;;;;;;;4166584;28;19979;-60
2023/12/03 01:32:48;;;;;;;;;;;;;;;;;;4166633;28;20110;-59
2023/12/03 01:34:49;;;;;;;;;;;;;;;;;;4165676;28;20035;-59
2023/12/03 01:36:51;;;;;;;;;;;;;;;;;;4150380;28;20345;-59
2023/12/03 01:38:52;;;;;;;;;;;;;;;;;;4165559;28;20011;-60
2023/12/03 01:40:54;;;;;;;;;;;;;;;;;;4166143;28;19925;-60
2023/12/03 01:42:55;;;;;;;;;;;;;;;;;;4157022;28;19926;-59
2023/12/03 01:44:57;;;;;;;;;;;;;;;;;;4150066;28;20007;-59
2023/12/03 01:46:58;;;;;;;;;;;;;;;;;;4149963;28;19922;-59
2023/12/03 01:49:00;;;;;;;;;;;;;;;;;;4149989;28;19922;-60
2023/12/03 01:51:01;;;;;;;;;;;;;;;;;;4149623;28;20021;-60
2023/12/03 01:53:03;;;;;;;;;;;;;;;;;;4149690;28;19999;-59
2023/12/03 01:55:05;;;;;;;;;;;;;;;;;;4150146;28;20383;-60
2023/12/03 01:57:06;;;;;;;;;;;;;;;;;;4144033;28;19930;-60
2023/12/03 01:59:08;;;;;;;;;;;;;;;;;;4132206;28;19925;-60
2023/12/03 02:01:09;;;;;;;;;;;;;;;;;;4146426;28;19929;-59
2023/12/03 02:03:11;;;;;;;;;;;;;;;;;;4149419;28;19960;-60
2023/12/03 02:05:12;;;;;;;;;;;;;;;;;;4149560;28;19952;-59
2023/12/03 02:07:14;;;;;;;;;;;;;;;;;;4149721;28;19926;-60
2023/12/03 02:09:16;;;;;;;;;;;;;;;;;;4160728;28;19929;-60
2023/12/03 02:11:18;;;;;;;;;;;;;;;;;;4165756;28;19928;-60
2023/12/03 02:13:19;;;;;;;;;;;;;;;;;;4165916;28;19925;-59
2023/12/03 02:15:21;;;;;;;;;;;;;;;;;;4165654;28;19994;-59
2023/12/03 02:17:22;;;;;;;;;;;;;;;;;;4156167;28;19925;-58
2023/12/03 02:19:24;;;;;;;;;;;;;;;;;;4149430;28;19925;-59
2023/12/03 02:21:25;;;;;;;;;;;;;;;;;;4149008;28;20313;-59
2023/12/03 02:23:27;;;;;;;;;;;;;;;;;;4148134;28;20484;-60
2023/12/03 02:25:28;;;;;;;;;;;;;;;;;;4147506;28;19925;-60
2023/12/03 02:27:30;;;;;;;;;;;;;;;;;;4147882;28;19951;-60
2023/12/03 02:29:31;;;;;;;;;;;;;;;;;;4147611;28;20459;-59
2023/12/03 02:31:33;;;;;;;;;;;;;;;;;;4147828;28;19926;-60
2023/12/03 02:33:34;;;;;;;;;;;;;;;;;;4148163;28;19932;-59
2023/12/03 02:35:36;;;;;;;;;;;;;;;;;;4148021;28;19925;-59
2023/12/03 02:37:37;;;;;;;;;;;;;;;;;;4153564;28;20462;-59
2023/12/03 02:39:39;;;;;;;;;;;;;;;;;;4151725;28;20412;-60
2023/12/03 02:41:40;;;;;;;;;;;;;;;;;;4148889;28;19929;-60
2023/12/03 02:43:42;;;;;;;;;;;;;;;;;;4148901;28;19922;-59
2023/12/03 02:45:43;;;;;;;;;;;;;;;;;;4149202;28;19921;-58
2023/12/03 02:47:45;;;;;;;;;;;;;;;;;;4147958;28;20411;-59
2023/12/03 02:49:46;;;;;;;;;;;;;;;;;;4148705;28;19928;-59
2023/12/03 02:51:48;;;;;;;;;;;;;;;;;;4148728;28;19976;-59
2023/12/03 02:53:49;;;;;;;;;;;;;;;;;;4156442;28;20297;-59
2023/12/03 02:55:51;;;;;;;;;;;;;;;;;;4147817;28;19922;-59
2023/12/03 02:57:52;;;;;;;;;;;;;;;;;;4165388;28;19921;-58
2023/12/03 02:59:54;;;;;;;;;;;;;;;;;;4165181;28;19921;-59
2023/12/03 03:01:55;;;;;;;;;;;;;;;;;;4164835;28;20369;-59
2023/12/03 03:03:57;;;;;;;;;;;;;;;;;;4164881;28;19943;-59
2023/12/03 03:05:58;;;;;;;;;;;;;;;;;;4165086;28;20707;-59
2023/12/03 03:08:00;;;;;;;;;;;;;;;;;;4164919;28;20435;-59
2023/12/03 03:10:01;;;;;;;;;;;;;;;;;;4164771;28;20652;-59
2023/12/03 03:12:03;;;;;;;;;;;;;;;;;;4164101;28;20270;-59
2023/12/03 03:14:04;;;;;;;;;;;;;;;;;;4151689;28;19921;-57
2023/12/03 03:16:06;;;;;;;;;;;;;;;;;;4148402;28;19929;-60
2023/12/03 03:18:07;;;;;;;;;;;;;;;;;;4148664;28;19929;-58
2023/12/03 03:20:09;;;;;;;;;;;;;;;;;;4148561;28;19925;-60
2023/12/03 03:22:11;;;;;;;;;;;;;;;;;;4148387;28;19976;-60
2023/12/03 03:24:12;;;;;;;;;;;;;;;;;;4148426;28;19925;-60
2023/12/03 03:26:14;;;;;;;;;;;;;;;;;;4148456;28;19952;-59
2023/12/03 03:28:15;;;;;;;;;;;;;;;;;;4148252;28;19925;-59
2023/12/03 03:30:17;;;;;;;;;;;;;;;;;;4148295;28;19932;-59
2023/12/03 03:32:18;;;;;;;;;;;;;;;;;;4148600;28;19926;-59
2023/12/03 03:34:19;;;;;;;;;;;;;;;;;;4130758;28;19969;-59
2023/12/03 03:36:21;;;;;;;;;;;;;;;;;;4148346;28;19925;-60
2023/12/03 03:38:23;;;;;;;;;;;;;;;;;;4148307;28;19921;-60
2023/12/03 03:40:24;;;;;;;;;;;;;;;;;;4148194;28;19925;-59
2023/12/03 03:42:25;;;;;;;;;;;;;;;;;;4148087;28;20366;-59
2023/12/03 03:44:27;;;;;;;;;;;;;;;;;;4148257;28;19926;-59
2023/12/03 03:46:28;;;;;;;;;;;;;;;;;;4148105;28;19961;-59
2023/12/03 03:48:30;;;;;;;;;;;;;;;;;;4148177;28;19922;-58
2023/12/03 03:50:31;;;;;;;;;;;;;;;;;;4148260;28;19922;-59
2023/12/03 03:52:33;;;;;;;;;;;;;;;;;;4148378;28;19921;-59
2023/12/03 03:54:34;;;;;;;;;;;;;;;;;;4148159;28;20321;-59
2023/12/03 03:56:36;;;;;;;;;;;;;;;;;;4148611;28;20271;-59
2023/12/03 03:58:37;;;;;;;;;;;;;;;;;;4147915;28;19933;-59
2023/12/03 04:00:39;;;;;;;;;;;;;;;;;;4148010;28;19963;-59
2023/12/03 04:02:41;;;;;;;;;;;;;;;;;;4147952;28;20040;-58
2023/12/03 04:04:42;;;;;;;;;;;;;;;;;;4147908;28;19929;-59
2023/12/03 04:06:47;;;;;;;;;;;;;;;;;;4148004;28;19922;-59
2023/12/03 04:08:48;;;;;;;;;;;;;;;;;;4154785;28;19932;-59
2023/12/03 04:10:50;;;;;;;;;;;;;;;;;;4148109;28;19922;-59
2023/12/03 04:12:51;;;;;;;;;;;;;;;;;;4148227;28;19929;-60
2023/12/03 04:14:53;;;;;;;;;;;;;;;;;;4147816;28;19931;-59
2023/12/03 04:16:54;;;;;;;;;;;;;;;;;;4147962;28;19921;-59
2023/12/03 04:18:56;;;;;;;;;;;;;;;;;;4148143;28;19922;-59
2023/12/03 04:20:57;;;;;;;;;;;;;;;;;;4147804;28;19921;-59
2023/12/03 04:22:59;;;;;;;;;;;;;;;;;;4149370;28;19925;-59
2023/12/03 04:25:01;;;;;;;;;;;;;;;;;;4151180;28;19927;-59
2023/12/03 04:27:03;;;;;;;;;;;;;;;;;;4151230;28;19937;-59
2023/12/03 04:29:04;;;;;;;;;;;;;;;;;;4151177;28;19976;-59
2023/12/03 04:31:06;;;;;;;;;;;;;;;;;;4151071;28;19948;-60
2023/12/03 04:33:07;;;;;;;;;;;;;;;;;;4151007;28;20011;-60
2023/12/03 04:35:09;;;;;;;;;;;;;;;;;;4150768;28;19932;-59
2023/12/03 04:37:10;;;;;;;;;;;;;;;;;;4151082;28;19922;-59
2023/12/03 04:39:12;;;;;;;;;;;;;;;;;;4150715;28;19922;-60
2023/12/03 04:41:13;;;;;;;;;;;;;;;;;;4150777;28;20370;-59
2023/12/03 04:43:15;;;;;;;;;;;;;;;;;;4150912;28;20373;-59
2023/12/03 04:45:16;;;;;;;;;;;;;;;;;;4150663;28;19925;-59
2023/12/03 04:47:18;;;;;;;;;;;;;;;;;;4151081;28;19980;-59
2023/12/03 04:49:19;;;;;;;;;;;;;;;;;;4150714;28;19929;-58
2023/12/03 04:51:21;;;;;;;;;;;;;;;;;;4150789;28;20361;-59
2023/12/03 04:53:23;;;;;;;;;;;;;;;;;;4150884;28;19922;-59
2023/12/03 04:55:24;;;;;;;;;;;;;;;;;;4150591;28;19945;-59
2023/12/03 04:57:26;;;;;;;;;;;;;;;;;;4150936;28;19968;-59
2023/12/03 04:59:27;;;;;;;;;;;;;;;;;;4150479;28;20361;-58
2023/12/03 05:01:29;;;;;;;;;;;;;;;;;;4150371;28;19925;-59
2023/12/03 05:03:30;;;;;;;;;;;;;;;;;;4150255;28;19926;-59
2023/12/03 05:05:32;;;;;;;;;;;;;;;;;;4150648;28;20016;-59
2023/12/03 05:07:33;;;;;;;;;;;;;;;;;;4150647;28;19921;-58
2023/12/03 05:09:35;;;;;;;;;;;;;;;;;;4164097;28;20373;-57
2023/12/03 05:11:37;;;;;;;;;;;;;;;;;;4153851;28;19972;-58
2023/12/03 05:13:38;;;;;;;;;;;;;;;;;;4150555;28;19952;-57
2023/12/03 05:15:40;;;;;;;;;;;;;;;;;;4150285;28;19931;-57
2023/12/03 05:17:42;;;;;;;;;;;;;;;;;;4150243;28;20324;-58
2023/12/03 05:19:43;;;;;;;;;;;;;;;;;;4150378;28;19925;-57
2023/12/03 05:21:45;;;;;;;;;;;;;;;;;;4150363;28;20317;-57
2023/12/03 05:23:47;;;;;;;;;;;;;;;;;;4150050;28;19944;-57
2023/12/03 05:25:48;;;;;;;;;;;;;;;;;;4150357;28;19921;-57
2023/12/03 05:27:50;;;;;;;;;;;;;;;;;;4150483;28;19929;-58
2023/12/03 05:29:51;;;;;;;;;;;;;;;;;;4150259;28;19979;-58
2023/12/03 05:31:53;;;;;;;;;;;;;;;;;;4149992;28;19922;-58
2023/12/03 05:33:54;;;;;;;;;;;;;;;;;;4149477;28;19921;-57
2023/12/03 05:35:56;;;;;;;;;;;;;;;;;;4150017;28;19944;-57
2023/12/03 05:37:57;;;;;;;;;;;;;;;;;;4150143;28;20268;-57
2023/12/03 05:39:59;;;;;;;;;;;;;;;;;;4149780;28;19925;-58
2023/12/03 05:42:01;;;;;;;;;;;;;;;;;;4150107;28;19925;-57
2023/12/03 05:44:03;;;;;;;;;;;;;;;;;;4149766;28;19975;-57
2023/12/03 05:46:05;;;;;;;;;;;;;;;;;;4149844;28;20271;-57
2023/12/03 05:48:06;;;;;;;;;;;;;;;;;;4149939;28;20278;-57
2023/12/03 05:50:08;;;;;;;;;;;;;;;;;;4149997;28;19925;-57
2023/12/03 05:52:10;;;;;;;;;;;;;;;;;;4150040;28;20547;-57
2023/12/03 05:54:11;;;;;;;;;;;;;;;;;;4149806;28;19964;-57
2023/12/03 05:56:13;;;;;;;;;;;;;;;;;;4149870;28;19925;-58
2023/12/03 05:58:14;;;;;;;;;;;;;;;;;;4149600;28;19922;-57
2023/12/03 06:00:16;;;;;;;;;;;;;;;;;;4149420;28;19937;-57
2023/12/03 06:02:17;;;;;;;;;;;;;;;;;;4149397;28;19922;-57
2023/12/03 06:04:19;;;;;;;;;;;;;;;;;;4149352;28;19925;-57
2023/12/03 06:06:20;;;;;;;;;;;;;;;;;;4149507;28;19929;-58
2023/12/03 06:08:22;;;;;;;;;;;;;;;;;;4153402;28;20023;-56
2023/12/03 06:10:23;;;;;;;;;;;;;;;;;;4165845;28;19951;-58
2023/12/03 06:12:25;;;;;;;;;;;;;;;;;;4165968;28;19928;-57
2023/12/03 06:14:26;;;;;;;;;;;;;;;;;;4165922;28;19921;-57
2023/12/03 06:16:28;;;;;;;;;;;;;;;;;;4153226;28;19960;-57
2023/12/03 06:18:30;;;;;;;;;;;;;;;;;;4149623;28;19968;-57
2023/12/03 06:20:31;;;;;;;;;;;;;;;;;;4149268;28;20374;-57
2023/12/03 06:22:33;;;;;;;;;;;;;;;;;;4159003;28;19972;-57
2023/12/03 06:24:34;;;;;;;;;;;;;;;;;;4153103;28;20384;-57
2023/12/03 06:26:36;;;;;;;;;;;;;;;;;;4149453;28;20020;-57
2023/12/03 06:28:37;;;;;;;;;;;;;;;;;;4149337;28;19929;-57
2023/12/03 06:30:39;;;;;;;;;;;;;;;;;;4149487;28;19928;-57
2023/12/03 06:32:40;;;;;;;;;;;;;;;;;;4132161;28;19929;-57
2023/12/03 06:34:42;;;;;;;;;;;;;;;;;;4149402;28;19921;-57
2023/12/03 06:36:44;;;;;;;;;;;;;;;;;;4150737;28;19921;-57
2023/12/03 06:38:45;;;;;;;;;;;;;;;;;;4163792;28;20432;-57
2023/12/03 06:40:47;;;;;;;;;;;;;;;;;;4156802;28;20357;-57
2023/12/03 06:42:48;;;;;;;;;;;;;;;;;;4148955;28;19921;-57
2023/12/03 06:44:50;;;;;;;;;;;;;;;;;;4148778;28;19921;-57
2023/12/03 06:46:51;;;;;;;;;;;;;;;;;;4159498;28;19984;-57
2023/12/03 06:48:53;;;;;;;;;;;;;;;;;;4154420;28;20270;-57
2023/12/03 06:50:54;;;;;;;;;;;;;;;;;;4149048;28;19925;-57
2023/12/03 06:52:56;;;;;;;;;;;;;;;;;;4159758;28;20415;-57
2023/12/03 06:54:58;;;;;;;;;;;;;;;;;;4165113;28;20316;-58
2023/12/03 06:56:59;;;;;;;;;;;;;;;;;;4165377;28;19987;-57
2023/12/03 06:59:01;;;;;;;;;;;;;;;;;;4152505;28;19931;-58
2023/12/03 07:01:02;;;;;;;;;;;;;;;;;;4148667;28;19933;-58
2023/12/03 07:03:03;;;;;;;;;;;;;;;;;;4148445;28;19972;-58
2023/12/03 07:05:05;;;;;;;;;;;;;;;;;;4148240;28;20033;-57
2023/12/03 07:07:06;;;;;;;;;;;;;;;;;;4153429;28;20285;-58
2023/12/03 07:09:11;;;;;;;;;;;;;;;;;;4153106;28;19929;-57
2023/12/03 07:11:33;;;;;;;;;;;;;;;;;;4148640;28;19925;-57
2023/12/03 07:13:35;;;;;;;;;;;;;;;;;;4148600;28;20301;-57
2023/12/03 07:15:36;;;;;;;;;;;;;;;;;;4148526;28;19932;-58
2023/12/03 07:17:38;;;;;;;;;;;;;;;;;;4148522;28;19964;-57
2023/12/03 07:19:40;;;;;;;;;;;;;;;;;;4152728;28;19964;-58
2023/12/03 07:21:41;;;;;;;;;;;;;;;;;;4148476;28;20377;-57
2023/12/03 07:23:43;;;;;;;;;;;;;;;;;;4148239;28;19929;-57
2023/12/03 07:25:44;;;;;;;;;;;;;;;;;;4148449;28;19972;-58
2023/12/03 07:27:46;;;;;;;;;;;;;;;;;;4148730;28;19944;-59
2023/12/03 07:29:47;;;;;;;;;;;;;;;;;;4148578;28;19921;-59
2023/12/03 07:31:49;;;;;;;;;;;;;;;;;;4148588;28;19975;-58
2023/12/03 07:33:50;;;;;;;;;;;;;;;;;;4155623;28;19928;-59
2023/12/03 07:35:52;;;;;;;;;;;;;;;;;;4149830;28;19929;-59
2023/12/03 07:37:53;;;;;;;;;;;;;;;;;;4134054;28;19921;-57
2023/12/03 07:39:55;;;;;;;;;;;;;;;;;;4162528;28;19921;-57
2023/12/03 07:41:56;;;;;;;;;;;;;;;;;;4164653;28;20356;-57
2023/12/03 07:43:58;;;;;;;;;;;;;;;;;;4164676;28;19921;-57
2023/12/03 07:45:59;;;;;;;;;;;;;;;;;;4164459;28;19921;-57
2023/12/03 07:48:01;;;;;;;;;;;;;;;;;;4165028;28;19921;-57
2023/12/03 07:50:02;;;;;;;;;;;;;;;;;;4164470;28;19928;-58
2023/12/03 07:52:04;;;;;;;;;;;;;;;;;;4164173;28;19928;-58
2023/12/03 07:54:05;;;;;;;;;;;;;;;;;;4143980;28;20405;-58
2023/12/03 07:56:07;;;;;;;;;;;;;;;;;;4148488;28;20420;-58
2023/12/03 07:58:09;;;;;;;;;;;;;;;;;;4150210;28;20430;-57
2023/12/03 08:00:11;;;;;;;;;;;;;;;;;;4151099;28;19921;-58
2023/12/03 08:02:12;;;;;;;;;;;;;;;;;;4151040;28;20018;-58
2023/12/03 08:04:14;;;;;;;;;;;;;;;;;;4151011;28;19932;-57
2023/12/03 08:06:15;;;;;;;;;;;;;;;;;;4151345;28;20016;-58
2023/12/03 08:08:17;;;;;;;;;;;;;;;;;;4152116;28;20305;-57
2023/12/03 08:10:19;;;;;;;;;;;;;;;;;;4151894;28;20389;-57
2023/12/03 08:12:20;;;;;;;;;;;;;;;;;;4149652;28;19921;-57
2023/12/03 08:14:22;;;;;;;;;;;;;;;;;;4150550;28;19925;-58
2023/12/03 08:16:23;;;;;;;;;;;;;;;;;;4151080;28;19925;-58
2023/12/03 08:18:25;;;;;;;;;;;;;;;;;;4149967;28;19983;-57
2023/12/03 08:20:26;;;;;;;;;;;;;;;;;;4149643;28;19939;-57
2023/12/03 08:22:28;;;;;;;;;;;;;;;;;;4147843;28;19921;-58
2023/12/03 08:24:29;;;;;;;;;;;;;;;;;;4148431;28;19921;-57
2023/12/03 08:26:31;;;;;;;;;;;;;;;;;;4140677;28;19960;-57
2023/12/03 08:28:33;;;;;;;;;;;;;;;;;;4131667;28;19926;-58
2023/12/03 08:30:35;;;;;;;;;;;;;;;;;;4150044;28;19940;-57
2023/12/03 08:32:36;;;;;;;;;;;;;;;;;;4132833;28;19925;-56
2023/12/03 08:34:38;;;;;;;;;;;;;;;;;;4154806;28;19925;-58
2023/12/03 08:36:39;;;;;;;;;;;;;;;;;;4148453;28;19926;-57
2023/12/03 08:38:41;;;;;;;;;;;;;;;;;;4151335;28;19936;-57
2023/12/03 08:40:42;;;;;;;;;;;;;;;;;;4150241;28;20595;-57
2023/12/03 08:42:44;;;;;;;;;;;;;;;;;;4148840;28;19979;-58
2023/12/03 08:44:46;;;;;;;;;;;;;;;;;;4150551;28;19927;-58
2023/12/03 08:46:50;;;;;;;;;;;;;;;;;;4117500;28;19922;-57
2023/12/03 08:48:51;;;;;;;;;;;;;;;;;;4134376;28;19922;-58
2023/12/03 08:50:53;;;;;;;;;;;;;;;;;;4146392;28;19921;-57
2023/12/03 08:52:54;;;;;;;;;;;;;;;;;;4148537;28;19921;-58
2023/12/03 08:54:56;;;;;;;;;;;;;;;;;;4149180;28;20366;-57
2023/12/03 08:56:59;;;;;;;;;;;;;;;;;;4149694;28;19961;-58
2023/12/03 08:59:00;;;;;;;;;;;;;;;;;;4151773;28;19928;-57
2023/12/03 09:01:01;;;;;;;;;;;;;;;;;;4147181;28;19921;-59
2023/12/03 09:03:04;;;;;;;;;;;;;;;;;;4148625;28;20016;-58
2023/12/03 09:05:06;;;;;;;;;;;;;;;;;;4134804;28;19929;-59
2023/12/03 09:07:07;;;;;;;;;;;;;;;;;;4149797;28;19921;-57
2023/12/03 09:09:09;;;;;;;;;;;;;;;;;;4152919;28;19921;-55
2023/12/03 09:11:10;;;;;;;;;;;;;;;;;;4150246;28;19925;-55
2023/12/03 09:13:12;;;;;;;;;;;;;;;;;;4149823;28;19925;-55
2023/12/03 09:15:13;;;;;;;;;;;;;;;;;;4149225;28;19968;-56
2023/12/03 09:17:15;;;;;;;;;;;;;;;;;;4146548;28;19922;-57
2023/12/03 09:19:16;;;;;;;;;;;;;;;;;;4148081;28;19931;-58
2023/12/03 09:21:18;;;;;;;;;;;;;;;;;;4144686;28;19968;-58
2023/12/03 09:23:20;;;;;;;;;;;;;;;;;;4149858;28;19925;-58
2023/12/03 09:25:21;;;;;;;;;;;;;;;;;;4146734;28;19925;-57
2023/12/03 09:27:23;;;;;;;;;;;;;;;;;;4145976;28;19979;-58
2023/12/03 09:29:24;;;;;;;;;;;;;;;;;;4147765;28;19932;-69
2023/12/03 09:31:26;;;;;;;;;;;;;;;;;;4148668;28;19921;-69
2023/12/03 09:33:27;;;;;;;;;;;;;;;;;;4148670;28;19967;-69
2023/12/03 09:35:29;;;;;;;;;;;;;;;;;;4151318;28;20004;-69
2023/12/03 09:37:30;;;;;;;;;;;;;;;;;;4154543;28;19943;-69
2023/12/03 09:39:32;;;;;;;;;;;;;;;;;;4166562;28;20419;-69
2023/12/03 09:41:34;;;;;;;;;;;;;;;;;;4166519;28;19928;-69
2023/12/03 09:43:35;;;;;;;;;;;;;;;;;;4166327;28;19927;-69
2023/12/03 09:45:37;;;;;;;;;;;;;;;;;;4160450;28;20358;-68
2023/12/03 09:47:38;;;;;;;;;;;;;;;;;;4144313;28;19956;-69
2023/12/03 09:49:40;;;;;;;;;;;;;;;;;;4148574;28;19956;-69
2023/12/03 09:51:42;;;;;;;;;;;;;;;;;;4149233;28;20406;-69
2023/12/03 09:53:46;;;;;;;;;;;;;;;;;;4155760;28;20458;-69
2023/12/03 09:55:48;;;;;;;;;;;;;;;;;;4158780;28;19921;-70
2023/12/03 09:57:50;;;;;;;;;;;;;;;;;;4150011;28;19922;-69
2023/12/03 09:59:52;;;;;;;;;;;;;;;;;;4149620;28;20017;-70
2023/12/03 10:01:53;;;;;;;;;;;;;;;;;;4149258;28;19925;-69
2023/12/03 10:03:55;;;;;;;;;;;;;;;;;;4149472;28;19921;-68
2023/12/03 10:05:56;;;;;;;;;;;;;;;;;;4149352;28;20016;-69
2023/12/03 10:07:58;;;;;;;;;;;;;;;;;;4149987;28;20356;-68
2023/12/03 10:10:00;;;;;;;;;;;;;;;;;;4149546;28;19925;-69
2023/12/03 10:12:02;;;;;;;;;;;;;;;;;;4149420;28;20388;-69
2023/12/03 10:14:05;;;;;;;;;;;;;;;;;;4149315;28;20401;-69
2023/12/03 10:16:07;;;;;;;;;;;;;;;;;;4147880;28;19940;-69
2023/12/03 10:18:08;;;;;;;;;;;;;;;;;;4146454;28;19925;-69
2023/12/03 10:20:13;;;;;;;;;;;;;;;;;;4148777;28;20289;-69
2023/12/03 10:22:14;;;;;;;;;;;;;;;;;;4148643;28;19975;-70
2023/12/03 10:24:16;;;;;;;;;;;;;;;;;;4148114;28;20443;-70
2023/12/03 10:26:17;;;;;;;;;;;;;;;;;;4146817;28;19948;-70
2023/12/03 10:28:20;;;;;;;;;;;;;;;;;;4147559;28;19925;-70
2023/12/03 10:30:22;;;;;;;;;;;;;;;;;;4148778;28;19926;-69
2023/12/03 10:32:23;;;;;;;;;;;;;;;;;;4147231;28;19972;-69
2023/12/03 10:34:28;;;;;;;;;;;;;;;;;;4148887;28;19925;-69
2023/12/03 10:36:30;;;;;;;;;;;;;;;;;;4129698;28;19922;-69
2023/12/03 10:38:32;;;;;;;;;;;;;;;;;;4161851;28;19921;-69
2023/12/03 10:40:39;;;;;;;;;;;;;;;;;;4149291;28;20293;-70
2023/12/03 10:42:42;;;;;;;;;;;;;;;;;;4142573;28;20404;-63
2023/12/03 10:44:44;;;;;;;;;;;;;;;;;;4147392;28;20507;-63
2023/12/03 10:46:46;;;;;;;;;;;;;;;;;;4151893;28;19921;-64
2023/12/03 10:48:50;;;;;;;;;;;;;;;;;;4145693;28;19932;-64
2023/12/03 10:50:52;;;;;;;;;;;;;;;;;;4145278;28;19932;-63
2023/12/03 10:52:54;;;;;;;;;;;;;;;;;;4148403;28;19929;-63
2023/12/03 10:54:55;;;;;;;;;;;;;;;;;;4148528;28;19924;-62
2023/12/03 10:56:57;;;;;;;;;;;;;;;;;;4148817;28;19925;-63
2023/12/03 10:59:00;;;;;;;;;;;;;;;;;;4148399;28;19925;-63
2023/12/03 11:01:04;;;;;;;;;;;;;;;;;;4148349;28;19935;-63
2023/12/03 11:03:05;;;;;;;;;;;;;;;;;;4151911;28;19921;-63
2023/12/03 11:05:10;;;;;;;;;;;;;;;;;;4130586;28;20012;-63
2023/12/03 11:07:11;;;;;;;;;;;;;;;;;;4148604;28;20015;-63
2023/12/03 11:09:16;;;;;;;;;;;;;;;;;;4151824;28;20389;-63
2023/12/03 11:11:20;;;;;;;;;;;;;;;;;;4127359;28;19975;-63
2023/12/03 11:13:23;;;;;;;;;;;;;;;;;;4148500;28;19929;-63
2023/12/03 11:15:31;;;;;;;;;;;;;;;;;;4145626;28;19929;-63
2023/12/03 11:17:32;;;;;;;;;;;;;;;;;;4148014;28;19971;-64
2023/12/03 11:19:35;;;;;;;;;;;;;;;;;;4146973;28;19967;-63
2023/12/03 11:21:45;;;;;;;;;;;;;;;;;;4147035;28;19921;-63
2023/12/03 11:23:47;;;;;;;;;;;;;;;;;;4147502;28;19921;-63
2023/12/03 11:25:51;;;;;;;;;;;;;;;;;;4147000;28;19968;-63
2023/12/03 11:27:53;;;;;;;;;;;;;;;;;;4148117;28;19921;-63
2023/12/03 11:29:55;;;;;;;;;;;;;;;;;;4148016;28;19935;-63
2023/12/03 11:31:59;;;;;;;;;;;;;;;;;;4124900;28;19975;-63
2023/12/03 11:34:05;;;;;;;;;;;;;;;;;;4146053;28;19921;-63
2023/12/03 11:36:09;;;;;;;;;;;;;;;;;;4138875;28;19956;-64
2023/12/03 11:38:12;;;;;;;;;;;;;;;;;;4142799;28;19921;-63
2023/12/03 11:40:13;;;;;;;;;;;;;;;;;;4146716;28;19921;-63
2023/12/03 11:42:16;;;;;;;;;;;;;;;;;;4148195;28;19925;-64
2023/12/03 11:44:20;;;;;;;;;;;;;;;;;;4147828;28;19932;-63
2023/12/03 11:46:22;;;;;;;;;;;;;;;;;;4146618;28;19937;-63
2023/12/03 11:48:23;;;;;;;;;;;;;;;;;;4147619;28;20011;-63
2023/12/03 11:50:28;;;;;;;;;;;;;;;;;;4147633;28;19928;-64
2023/12/03 11:52:29;;;;;;;;;;;;;;;;;;4148304;28;19926;-63
2023/12/03 11:54:31;;;;;;;;;;;;;;;;;;4149124;28;19925;-64
2023/12/03 11:56:35;;;;;;;;;;;;;;;;;;4147970;28;19921;-64
2023/12/03 11:58:39;;;;;;;;;;;;;;;;;;4147973;28;19925;-63
2023/12/03 12:00:45;;;;;;;;;;;;;;;;;;4147223;28;20385;-63
2023/12/03 12:02:49;;;;;;;;;;;;;;;;;;4137248;28;19926;-64
2023/12/03 12:04:52;;;;;;;;;;;;;;;;;;4147815;28;19936;-64
2023/12/03 12:06:54;;;;;;;;;;;;;;;;;;4141957;28;19922;-64
2023/12/03 12:08:58;;;;;;;;;;;;;;;;;;4148624;28;19932;-63
2023/12/03 12:11:06;;;;;;;;;;;;;;;;;;4164442;28;19921;-64
2023/12/03 12:13:09;;;;;;;;;;;;;;;;;;4156886;28;19925;-63
2023/12/03 12:15:13;;;;;;;;;;;;;;;;;;4144204;28;19931;-63
2023/12/03 12:17:17;;;;;;;;;;;;;;;;;;4146500;28;19972;-64
2023/12/03 12:19:19;;;;;;;;;;;;;;;;;;4146394;28;19929;-63
2023/12/03 12:21:23;;;;;;;;;;;;;;;;;;4146261;28;19979;-63
2023/12/03 12:23:27;;;;;;;;;;;;;;;;;;4146519;28;20381;-64
2023/12/03 12:25:28;;;;;;;;;;;;;;;;;;4147664;28;19929;-64
2023/12/03 12:27:30;;;;;;;;;;;;;;;;;;4146923;28;19921;-64
2023/12/03 12:29:35;;;;;;;;;;;;;;;;;;4148156;28;19960;-64
2023/12/03 12:31:37;;;;;;;;;;;;;;;;;;4146718;28;19967;-64
2023/12/03 12:33:41;;;;;;;;;;;;;;;;;;4147700;28;19921;-64
2023/12/03 12:35:43;;;;;;;;;;;;;;;;;;4147782;28;20386;-64
2023/12/03 12:37:45;;;;;;;;;;;;;;;;;;4143161;28;20194;-63
2023/12/03 12:39:47;;;;;;;;;;;;;;;;;;4131551;28;20374;-64
2023/12/03 12:41:49;;;;;;;;;;;;;;;;;;4138152;28;20378;-63
2023/12/03 12:43:57;;;;;;;;;;;;;;;;;;4148223;28;19927;-64
2023/12/03 12:46:00;;;;;;;;;;;;;;;;;;4150662;28;19975;-63
2023/12/03 12:48:02;;;;;;;;;;;;;;;;;;4150842;28;19921;-61
2023/12/03 12:50:06;;;;;;;;;;;;;;;;;;4150216;28;19921;-62
2023/12/03 12:52:08;;;;;;;;;;;;;;;;;;4150803;28;19922;-62
2023/12/03 12:54:14;;;;;;;;;;;;;;;;;;4160263;28;19921;-61
2023/12/03 12:56:25;;;;;;;;;;;;;;;;;;4155734;28;20385;-61
2023/12/03 12:58:28;;;;;;;;;;;;;;;;;;4147672;28;19921;-62
2023/12/03 13:00:30;;;;;;;;;;;;;;;;;;4150402;28;19922;-62
2023/12/03 13:02:34;;;;;;;;;;;;;;;;;;4149282;28;19921;-62
2023/12/03 13:04:38;;;;;;;;;;;;;;;;;;4149087;28;20040;-62
2023/12/03 13:06:43;;;;;;;;;;;;;;;;;;4148387;28;20416;-62
2023/12/03 13:08:46;;;;;;;;;;;;;;;;;;4157164;28;19925;-61
2023/12/03 13:10:50;;;;;;;;;;;;;;;;;;4166450;28;20340;-61
2023/12/03 13:12:51;;;;;;;;;;;;;;;;;;4166691;28;19932;-61
2023/12/03 13:14:56;;;;;;;;;;;;;;;;;;4148385;28;20349;-62
2023/12/03 13:16:58;;;;;;;;;;;;;;;;;;4146517;28;19921;-62
2023/12/03 13:19:03;;;;;;;;;;;;;;;;;;4148976;28;19976;-61
2023/12/03 13:21:07;;;;;;;;;;;;;;;;;;4143749;28;20404;-61
2023/12/03 13:23:18;;;;;;;;;;;;;;;;;;4144958;28;20443;-62
2023/12/03 13:25:22;;;;;;;;;;;;;;;;;;4140506;28;20000;-61
2023/12/03 13:27:23;;;;;;;;;;;;;;;;;;4148648;28;19984;-61
2023/12/03 13:29:31;;;;;;;;;;;;;;;;;;4147045;28;19921;-61
2023/12/03 13:31:32;;;;;;;;;;;;;;;;;;4144720;28;19925;-61
2023/12/03 13:33:36;;;;;;;;;;;;;;;;;;4143608;28;19925;-61
2023/12/03 13:35:38;;;;;;;;;;;;;;;;;;4140731;28;20435;-61
2023/12/03 13:37:41;;;;;;;;;;;;;;;;;;4155103;28;19921;-61
2023/12/03 13:39:48;;;;;;;;;;;;;;;;;;4152292;28;20381;-61
2023/12/03 13:41:49;;;;;;;;;;;;;;;;;;4149056;28;19943;-61
2023/12/03 13:43:52;;;;;;;;;;;;;;;;;;4147343;28;20290;-62
2023/12/03 13:45:56;;;;;;;;;;;;;;;;;;4143990;28;19925;-61
2023/12/03 13:47:58;;;;;;;;;;;;;;;;;;4148410;28;20020;-62
2023/12/03 13:50:01;;;;;;;;;;;;;;;;;;4130592;28;19944;-61
2023/12/03 13:52:08;;;;;;;;;;;;;;;;;;4147227;28;19928;-61
2023/12/03 13:54:13;;;;;;;;;;;;;;;;;;4134382;28;19976;-61